Time;durP1;ratioP1;P1;durP2;ratioP2;P2;SDS_P1;SDS_P2;PMS_P1;PMS_P2;Temp;Humidity;BMP_temperature;BMP_pressure;BME280_temperature;BME280_humidity;BME280_pressure;Samples;Min_cycle;Max_cycle;Signal;HPM_P1;HPM_P2
2022/06/01 00:00:52;;;;;;;15.90;14.30;;;;;;;11.22;86.54;101269.41;5170774;28;20085;-69
2022/06/01 00:03:24;;;;;;;14.80;13.40;;;;;;;11.56;85.11;101277.97;5170245;28;20038;-70
2022/06/01 00:05:55;;;;;;;15.93;14.47;;;;;;;11.20;86.34;101269.50;5170736;28;20564;-70
2022/06/01 00:08:27;;;;;;;15.63;14.13;;;;;;;11.07;87.61;101277.19;5170095;28;20050;-70
2022/06/01 00:10:59;;;;;;;15.80;14.20;;;;;;;11.41;86.00;101273.59;5169746;28;20033;-70
2022/06/01 00:13:30;;;;;;;15.63;14.20;;;;;;;11.34;86.18;101275.72;5185833;28;20525;-69
2022/06/01 00:16:02;;;;;;;17.13;15.53;;;;;;;11.00;88.10;101281.06;5170119;28;20049;-70
2022/06/01 00:18:35;;;;;;;15.37;13.97;;;;;;;11.18;87.53;101278.34;5171035;28;20030;-69
2022/06/01 00:21:07;;;;;;;15.80;14.23;;;;;;;11.29;86.21;101283.88;5170132;28;20117;-69
2022/06/01 00:23:39;;;;;;;15.50;14.10;;;;;;;11.26;85.97;101278.78;5169069;28;20453;-70
2022/06/01 00:26:10;;;;;;;16.00;14.37;;;;;;;10.93;87.53;101280.56;5170399;28;20031;-69
2022/06/01 00:28:42;;;;;;;15.63;14.23;;;;;;;11.17;86.59;101282.75;5170437;28;20031;-70
2022/06/01 00:31:13;;;;;;;16.37;14.77;;;;;;;11.23;86.69;101284.19;5170395;28;20720;-70
2022/06/01 00:33:44;;;;;;;19.33;15.73;;;;;;;10.77;88.67;101285.78;5169857;28;20104;-70
2022/06/01 00:36:16;;;;;;;16.20;14.77;;;;;;;11.08;88.06;101281.47;5170024;28;20386;-69
2022/06/01 00:38:47;;;;;;;17.10;15.50;;;;;;;11.04;88.57;101281.75;5170993;28;20101;-69
2022/06/01 00:41:18;;;;;;;16.50;14.97;;;;;;;11.24;87.07;101291.16;5169636;28;20026;-70
2022/06/01 00:43:50;;;;;;;15.90;14.40;;;;;;;10.96;89.04;101285.63;5169014;28;20060;-69
2022/06/01 00:46:21;;;;;;;17.93;16.33;;;;;;;10.99;88.76;101274.13;5169290;28;20034;-70
2022/06/01 00:48:58;;;;;;;16.93;15.43;;;;;;;10.89;88.73;101279.03;5169694;28;20026;-71
2022/06/01 00:51:30;;;;;;;18.27;16.57;;;;;;;10.80;88.72;101276.91;5186040;28;20621;-70
2022/06/01 00:54:04;;;;;;;16.30;14.90;;;;;;;10.97;88.93;101281.22;5169017;28;20038;-70
2022/06/01 00:56:40;;;;;;;17.05;15.18;;;;;;;10.96;87.79;101279.56;5170287;28;20041;-69
2022/06/01 00:59:17;;;;;;;17.43;15.73;;;;;;;10.89;88.42;101285.09;5170507;28;20046;-69
2022/06/01 01:01:51;;;;;;;18.03;16.20;;;;;;;10.95;87.72;101277.84;5170403;28;20105;-69
2022/06/01 01:04:23;;;;;;;;;;;;;;;11.21;85.25;101284.28;5169033;28;20035;-70
2022/06/01 01:06:54;;;;;;;17.40;15.90;;;;;;;10.98;87.52;101282.91;5169243;28;20429;-70
2022/06/01 01:09:25;;;;;;;17.97;15.87;;;;;;;10.97;86.84;101274.22;5168663;28;20042;-70
2022/06/01 01:12:05;;;;;;;17.93;16.17;;;;;;;10.85;88.49;101278.38;5169880;28;20043;-70
2022/06/01 01:14:42;;;;;;;18.97;17.17;;;;;;;10.68;88.33;101276.66;5183906;28;20088;-69
2022/06/01 01:17:14;;;;;;;18.60;16.80;;;;;;;10.75;88.55;101269.31;5169037;28;20670;-70
2022/06/01 01:19:49;;;;;;;19.70;17.77;;;;;;;10.62;89.70;101277.81;5183851;28;20038;-70
2022/06/01 01:22:39;;;;;;;17.70;16.07;;;;;;;10.91;88.01;101274.53;5169374;28;20109;-70
2022/06/01 01:25:32;;;;;;;20.63;18.53;;;;;;;10.79;89.39;101278.69;5183068;28;20033;-69
2022/06/01 01:28:05;;;;;;;19.33;17.33;;;;;;;10.93;88.51;101266.59;5168838;28;20561;-69
2022/06/01 01:30:37;;;;;;;19.95;18.00;;;;;;;10.86;88.99;101277.41;5169358;28;20549;-69
2022/06/01 01:33:12;;;;;;;20.53;18.53;;;;;;;10.63;89.54;101269.03;5168213;28;20105;-69
2022/06/01 01:35:47;;;;;;;20.43;18.57;;;;;;;10.59;89.81;101270.13;5168988;28;20054;-69
2022/06/01 01:38:25;;;;;;;;;;;;;;;10.96;86.50;101261.22;5168307;28;20027;-69
2022/06/01 01:41:00;;;;;;;20.07;18.10;;;;;;;10.59;90.00;101262.28;5183271;28;20346;-70
2022/06/01 01:43:36;;;;;;;22.50;20.30;;;;;;;10.74;89.70;101267.59;5168635;28;20502;-70
2022/06/01 01:46:07;;;;;;;19.87;17.97;;;;;;;10.87;88.50;101271.25;5183292;28;20041;-70
2022/06/01 01:48:38;;;;;;;20.80;18.57;;;;;;;10.87;89.13;101267.78;5168987;28;20019;-70
2022/06/01 01:51:10;;;;;;;21.77;19.67;;;;;;;10.85;88.91;101275.75;5183108;28;20364;-69
2022/06/01 01:53:41;;;;;;;22.80;20.40;;;;;;;10.86;88.95;101263.47;5182798;28;20015;-70
2022/06/01 01:56:25;;;;;;;21.17;19.20;;;;;;;10.89;88.10;101268.56;5182953;28;20030;-70
2022/06/01 01:59:28;;;;;;;21.88;19.85;;;;;;;10.89;88.75;101279.88;5183420;28;20118;-70
2022/06/01 02:02:34;;;;;;;21.90;19.90;;;;;;;10.91;87.94;101271.09;5166720;28;20026;-70
2022/06/01 02:08:16;;;;;;;22.40;20.30;;;;;;;10.58;91.27;101278.91;5167664;28;20039;-70
2022/06/01 02:13:40;;;;;;;21.03;18.93;;;;;;;10.70;88.42;101271.34;5168373;28;20732;-69
2022/06/01 02:16:12;;;;;;;22.50;20.13;;;;;;;10.63;88.47;101269.03;5167478;28;20031;-69
2022/06/01 02:18:49;;;;;;;22.90;19.70;;;;;;;10.70;88.30;101276.56;5168493;28;20389;-69
2022/06/01 02:21:25;;;;;;;21.97;19.73;;;;;;;10.61;88.30;101270.88;5167946;28;20031;-69
2022/06/01 02:23:59;;;;;;;23.10;20.83;;;;;;;10.63;88.75;101274.25;5166259;28;20035;-70
2022/06/01 02:26:32;;;;;;;23.03;20.70;;;;;;;10.46;89.21;101271.66;5174091;28;20097;-70
2022/06/01 02:29:14;;;;;;;21.33;19.33;;;;;;;10.58;88.49;101273.66;5174770;28;20114;-70
2022/06/01 02:31:46;;;;;;;23.37;21.10;;;;;;;10.24;90.49;101273.63;5189915;28;20406;-70
2022/06/01 02:34:19;;;;;;;22.03;19.70;;;;;;;10.48;88.63;101275.94;5190244;28;20385;-70
2022/06/01 02:36:51;;;;;;;23.23;20.90;;;;;;;10.43;89.26;101274.44;5189211;28;20074;-69
2022/06/01 02:39:24;;;;;;;22.30;20.13;;;;;;;10.40;89.57;101273.66;5173507;28;20057;-71
2022/06/01 02:42:25;;;;;;;22.17;20.17;;;;;;;10.33;89.94;101274.94;5174701;28;20069;-70
2022/06/01 02:45:00;;;;;;;22.67;20.40;;;;;;;10.30;89.36;101264.59;5189600;28;20055;-70
2022/06/01 02:47:33;;;;;;;;;;;;;;;10.53;87.02;101275.69;5189895;28;20618;-69
2022/06/01 02:50:13;;;;;;;20.83;18.73;;;;;;;10.31;89.20;101266.31;5174485;28;19918;-70
2022/06/01 02:52:45;;;;;;;21.73;19.63;;;;;;;9.98;90.15;101267.97;5173617;28;20041;-70
2022/06/01 02:55:19;;;;;;;20.63;18.63;;;;;;;10.12;89.68;101264.63;5174817;28;20027;-69
2022/06/01 02:57:52;;;;;;;23.17;20.77;;;;;;;10.16;89.06;101268.78;5174109;28;20042;-69
2022/06/01 03:00:27;;;;;;;20.50;18.50;;;;;;;9.97;90.09;101275.88;5189247;28;20034;-70
2022/06/01 03:03:00;;;;;;;23.27;20.93;;;;;;;9.91;90.33;101271.81;5174187;28;20031;-70
2022/06/01 03:05:36;;;;;;;21.97;19.83;;;;;;;9.88;90.80;101271.97;5175619;28;20433;-70
2022/06/01 03:08:10;;;;;;;20.73;18.60;;;;;;;10.04;89.17;101261.56;5173869;28;20057;-70
2022/06/01 03:10:41;;;;;;;21.05;18.95;;;;;;;9.99;89.39;101274.03;5175192;28;20031;-70
2022/06/01 03:13:12;;;;;;;20.33;18.30;;;;;;;10.05;88.18;101279.78;5188899;28;20070;-70
2022/06/01 03:15:43;;;;;;;19.87;17.73;;;;;;;10.07;88.48;101274.47;5189072;28;20128;-70
2022/06/01 03:18:15;;;;;;;21.97;19.83;;;;;;;9.70;90.13;101278.94;5174463;28;20027;-69
2022/06/01 03:20:46;;;;;;;20.20;18.07;;;;;;;10.00;88.57;101275.75;5189874;28;20062;-69
2022/06/01 03:23:19;;;;;;;19.23;17.40;;;;;;;9.93;88.48;101270.78;5173523;28;20030;-70
2022/06/01 03:25:51;;;;;;;19.30;17.33;;;;;;;9.94;88.47;101279.50;5173994;28;20039;-69
2022/06/01 03:28:22;;;;;;;21.47;19.17;;;;;;;9.81;89.51;101271.41;5173955;28;20077;-71
2022/06/01 03:30:54;;;;;;;19.43;17.63;;;;;;;9.92;88.28;101269.13;5174113;28;20481;-71
2022/06/01 03:33:25;;;;;;;21.97;17.60;;;;;;;9.97;88.12;101271.50;5173824;28;20536;-70
2022/06/01 03:35:56;;;;;;;20.13;18.23;;;;;;;9.62;89.85;101269.72;5189053;28;20056;-70
2022/06/01 03:38:27;;;;;;;18.80;17.03;;;;;;;9.75;88.70;101266.50;5169721;28;20031;-69
2022/06/01 03:40:59;;;;;;;19.00;16.50;;;;;;;9.90;88.18;101276.19;5171303;28;20023;-70
2022/06/01 03:43:30;;;;;;;20.00;17.40;;;;;;;9.76;88.92;101265.56;5170395;28;20051;-70
2022/06/01 03:46:02;;;;;;;19.00;16.83;;;;;;;9.71;89.81;101275.41;5171301;28;20026;-69
2022/06/01 03:48:34;;;;;;;17.67;15.77;;;;;;;9.73;88.49;101263.09;5171238;28;20023;-69
2022/06/01 03:51:05;;;;;;;17.53;15.83;;;;;;;9.72;88.85;101272.72;5170107;28;20031;-69
2022/06/01 03:53:36;;;;;;;17.43;15.63;;;;;;;9.75;89.00;101269.09;5185233;28;20023;-70
2022/06/01 03:56:09;;;;;;;22.43;15.90;;;;;;;9.76;88.62;101276.03;5170471;28;20102;-70
2022/06/01 03:58:40;;;;;;;18.57;16.30;;;;;;;9.66;88.36;101280.88;5170567;28;20030;-70
2022/06/01 04:01:11;;;;;;;17.17;15.37;;;;;;;9.75;88.22;101277.81;5185282;28;20779;-70
2022/06/01 04:03:42;;;;;;;18.97;15.03;;;;;;;9.71;88.13;101276.25;5170494;28;20039;-69
2022/06/01 04:06:14;;;;;;;20.97;16.20;;;;;;;9.65;88.25;101285.25;5170792;28;20397;-69
2022/06/01 04:08:45;;;;;;;16.70;14.77;;;;;;;9.50;88.87;101267.69;5169005;28;20079;-70
2022/06/01 04:11:16;;;;;;;18.80;15.73;;;;;;;9.68;88.80;101287.72;5170076;28;20035;-70
2022/06/01 04:13:48;;;;;;;17.50;15.70;;;;;;;9.64;89.44;101283.56;5184992;28;20130;-70
2022/06/01 04:16:19;;;;;;;21.63;16.17;;;;;;;9.66;89.51;101284.34;5170246;28;20110;-69
2022/06/01 04:18:50;;;;;;;19.50;15.73;;;;;;;9.70;89.16;101278.94;5170548;28;20018;-69
2022/06/01 04:21:24;;;;;;;21.50;15.03;;;;;;;9.64;89.76;101282.69;5172646;28;20049;-70
2022/06/01 04:23:59;;;;;;;17.63;15.83;;;;;;;9.71;89.38;101291.94;5170747;28;20033;-70
2022/06/01 04:26:31;;;;;;;16.80;15.10;;;;;;;9.51;90.66;101285.91;5170003;28;20055;-70
2022/06/01 04:29:02;;;;;;;18.57;15.30;;;;;;;9.61;90.29;101280.25;5169849;28;20058;-70
2022/06/01 04:31:35;;;;;;;20.37;15.13;;;;;;;9.58;91.23;101293.47;5169720;28;20023;-70
2022/06/01 04:34:06;;;;;;;16.13;14.43;;;;;;;9.66;90.33;101293.94;5170404;28;20022;-70
2022/06/01 04:36:37;;;;;;;20.40;15.93;;;;;;;9.73;89.94;101284.88;5170241;28;20031;-69
2022/06/01 04:39:09;;;;;;;21.60;16.30;;;;;;;9.54;90.99;101284.94;5168630;28;20058;-70
2022/06/01 04:41:40;;;;;;;18.27;15.20;;;;;;;9.63;91.16;101294.09;5170779;28;20939;-70
2022/06/01 04:44:11;;;;;;;20.17;15.70;;;;;;;9.54;92.53;101295.38;5185162;28;20477;-70
2022/06/01 04:46:43;;;;;;;17.03;15.07;;;;;;;9.61;91.56;101291.56;5170666;28;20740;-70
2022/06/01 04:49:14;;;;;;;16.60;14.33;;;;;;;9.69;91.00;101299.00;5168707;28;20015;-70
2022/06/01 04:51:45;;;;;;;18.83;15.10;;;;;;;9.61;91.98;101282.84;5184989;28;20926;-70
2022/06/01 04:54:17;;;;;;;17.87;15.40;;;;;;;9.77;91.19;101298.66;5183723;28;20105;-70
2022/06/01 04:56:48;;;;;;;19.27;13.83;;;;;;;9.72;91.00;101300.66;5169609;28;20636;-70
2022/06/01 04:59:20;;;;;;;17.57;13.67;;;;;;;9.78;90.85;101308.19;5170242;28;20023;-70
2022/06/01 05:01:51;;;;;;;19.93;13.37;;;;;;;9.77;91.47;101311.72;5169587;28;20034;-70
2022/06/01 05:04:22;;;;;;;14.77;12.90;;;;;;;9.83;91.10;101302.75;5168867;28;20030;-71
2022/06/01 05:06:56;;;;;;;16.20;13.77;;;;;;;9.76;91.54;101303.03;5169422;28;20023;-70
2022/06/01 05:09:27;;;;;;;16.53;12.77;;;;;;;9.81;91.49;101305.41;5168659;28;20074;-70
2022/06/01 05:11:59;;;;;;;16.37;12.10;;;;;;;9.84;91.17;101297.44;5167836;28;20500;-70
2022/06/01 05:14:30;;;;;;;18.67;12.53;;;;;;;9.84;91.49;101291.34;5169070;28;20026;-70
2022/06/01 05:17:01;;;;;;;14.73;12.13;;;;;;;9.90;91.04;101294.50;5169332;28;20029;-70
2022/06/01 05:19:34;;;;;;;14.80;11.70;;;;;;;9.82;91.29;101286.19;5170164;28;20470;-70
2022/06/01 05:22:05;;;;;;;13.87;11.03;;;;;;;9.80;91.82;101293.25;5172527;28;20041;-70
2022/06/01 05:24:37;;;;;;;14.67;11.33;;;;;;;9.90;91.25;101291.88;5168117;28;20030;-70
2022/06/01 05:27:08;;;;;;;15.43;12.17;;;;;;;9.89;92.00;101294.59;5183959;28;20034;-70
2022/06/01 05:29:39;;;;;;;13.17;10.53;;;;;;;9.93;91.53;101298.75;5169446;28;20023;-70
2022/06/01 05:32:11;;;;;;;16.30;12.57;;;;;;;9.97;92.26;101302.03;5168688;28;20066;-70
2022/06/01 05:34:42;;;;;;;19.07;12.53;;;;;;;9.96;92.56;101300.34;5184433;28;20034;-70
2022/06/01 05:37:13;;;;;;;16.07;12.00;;;;;;;9.97;93.00;101300.28;5167818;28;20497;-70
2022/06/01 05:39:45;;;;;;;14.00;10.67;;;;;;;10.07;93.02;101303.25;5169447;28;20030;-70
2022/06/01 05:42:16;;;;;;;17.07;10.87;;;;;;;10.05;93.90;101292.06;5168508;28;20121;-70
2022/06/01 05:44:48;;;;;;;14.77;11.13;;;;;;;10.13;93.97;101302.97;5168866;28;20035;-70
2022/06/01 05:47:19;;;;;;;13.40;11.70;;;;;;;10.11;95.74;101299.56;5169101;28;20035;-70
2022/06/01 05:49:50;;;;;;;16.53;11.57;;;;;;;10.24;94.18;101302.44;5168689;28;20027;-70
2022/06/01 05:52:22;;;;;;;14.83;11.73;;;;;;;10.24;94.59;101296.34;5167620;28;20566;-70
2022/06/01 05:54:54;;;;;;;16.40;11.70;;;;;;;10.32;94.72;101311.63;5167042;28;20066;-72
2022/06/01 05:57:25;;;;;;;16.40;12.13;;;;;;;10.30;94.82;101309.09;5168707;28;20471;-71
2022/06/01 05:59:56;;;;;;;16.47;11.23;;;;;;;10.41;94.92;101305.94;5171230;28;20030;-71
2022/06/01 06:02:28;;;;;;;16.97;12.13;;;;;;;10.47;95.40;101305.66;5167753;28;20039;-71
2022/06/01 06:04:59;;;;;;;17.30;12.37;;;;;;;10.52;95.21;101310.66;5183398;28;20037;-70
2022/06/01 06:07:30;;;;;;;20.73;13.53;;;;;;;10.64;96.79;101312.63;5166544;28;20030;-71
2022/06/01 06:10:02;;;;;;;14.70;12.77;;;;;;;10.73;96.04;101315.69;5167691;28;20031;-71
2022/06/01 06:12:33;;;;;;;23.03;12.63;;;;;;;10.81;95.04;101308.28;5168099;28;20436;-71
2022/06/01 06:15:05;;;;;;;20.83;12.73;;;;;;;10.91;94.94;101313.03;5167489;28;20031;-71
2022/06/01 06:17:36;;;;;;;21.80;13.63;;;;;;;11.04;95.14;101313.19;5182604;28;20023;-71
2022/06/01 06:20:08;;;;;;;17.00;12.60;;;;;;;11.04;96.54;101324.53;5167921;28;20045;-70
2022/06/01 06:22:39;;;;;;;15.97;11.30;;;;;;;11.08;95.10;101310.31;5167686;28;20097;-71
2022/06/01 06:25:11;;;;;;;17.43;11.20;;;;;;;11.19;95.14;101324.63;5162393;28;20043;-70
2022/06/01 06:27:42;;;;;;;17.67;10.57;;;;;;;11.25;93.66;101324.28;5154186;28;20276;-71
2022/06/01 06:30:18;;;;;;;17.57;11.10;;;;;;;11.33;94.76;101332.56;5163533;28;20070;-71
2022/06/01 06:32:49;;;;;;;15.90;11.63;;;;;;;11.40;96.25;101334.88;5178658;28;20042;-71
2022/06/01 06:35:20;;;;;;;15.17;10.83;;;;;;;11.50;94.74;101347.38;5180391;28;20023;-71
2022/06/01 06:37:52;;;;;;;14.53;10.30;;;;;;;11.53;93.91;101335.00;5160620;28;20485;-71
2022/06/01 06:40:23;;;;;;;20.40;11.23;;;;;;;11.71;93.55;101354.97;5180107;28;20023;-71
2022/06/01 06:42:54;;;;;;;15.63;11.27;;;;;;;11.77;93.80;101356.41;5165777;28;20039;-71
2022/06/01 06:45:26;;;;;;;20.37;11.77;;;;;;;11.90;93.14;101358.31;5164962;28;20042;-70
2022/06/01 06:47:57;;;;;;;16.13;10.30;;;;;;;12.01;91.41;101360.34;5177079;28;20317;-71
2022/06/01 06:50:28;;;;;;;13.77;11.13;;;;;;;12.12;91.56;101362.34;5164798;28;20038;-71
2022/06/01 06:53:00;;;;;;;15.03;10.13;;;;;;;12.31;91.91;101355.09;5162284;28;20031;-70
2022/06/01 06:55:32;;;;;;;13.63;10.47;;;;;;;12.55;90.91;101366.88;5164445;28;20098;-71
2022/06/01 06:58:06;;;;;;;15.03;10.03;;;;;;;12.68;88.11;101359.94;5162790;28;20379;-71
2022/06/01 07:00:38;;;;;;;16.55;10.55;;;;;;;12.78;89.70;101361.97;5180978;28;20030;-70
2022/06/01 07:03:09;;;;;;;10.77;8.57;;;;;;;12.99;85.53;101365.09;5179816;28;20646;-70
2022/06/01 07:08:32;;;;;;;12.20;8.27;;;;;;;13.44;82.84;101371.94;5161364;28;20043;-71
2022/06/01 07:11:03;;;;;;;12.27;8.17;;;;;;;13.72;80.82;101362.31;5164617;28;20031;-71
2022/06/01 07:13:35;;;;;;;12.87;8.23;;;;;;;13.96;80.60;101366.94;5167038;28;20051;-70
2022/06/01 07:16:13;;;;;;;9.10;7.30;;;;;;;14.47;80.21;101370.56;5167693;28;20034;-70
2022/06/01 07:18:47;;;;;;;15.83;8.00;;;;;;;15.02;77.86;101369.53;5180957;28;20034;-71
2022/06/01 07:21:20;;;;;;;;;;;;;;;15.83;77.13;101378.78;5168043;28;20445;-72
2022/06/01 07:23:52;;;;;;;10.60;7.00;;;;;;;16.01;72.68;101359.88;5182462;28;19914;-72
2022/06/01 07:26:26;;;;;;;11.67;7.80;;;;;;;16.55;69.91;101361.06;5181209;28;20034;-72
2022/06/01 07:28:58;;;;;;;14.10;7.07;;;;;;;16.86;65.45;101371.06;5167577;28;20030;-71
2022/06/01 07:31:30;;;;;;;11.60;5.73;;;;;;;17.50;65.76;101368.72;5168177;28;20026;-71
2022/06/01 07:34:03;;;;;;;12.53;5.43;;;;;;;17.85;63.18;101372.09;5169055;28;20022;-71
2022/06/01 07:36:37;;;;;;;9.83;5.00;;;;;;;18.11;62.92;101377.03;5166813;28;20085;-71
2022/06/01 07:44:53;;;;;;;7.87;4.67;;;;;;;19.65;55.06;101374.56;5169254;28;20039;-72
2022/06/01 07:47:24;;;;;;;7.40;4.18;;;;;;;19.63;54.83;101363.22;5166288;28;20619;-72
2022/06/01 07:49:56;;;;;;;8.70;3.97;;;;;;;19.55;55.07;101369.22;5168356;28;20023;-73
2022/06/01 07:52:28;;;;;;;9.38;4.10;;;;;;;19.83;53.96;101367.56;5167674;28;20320;-71
2022/06/01 07:54:59;;;;;;;7.07;3.95;;;;;;;19.90;51.48;101374.97;5168877;28;20038;-72
2022/06/01 07:57:32;;;;;;;8.95;3.92;;;;;;;19.68;52.20;101364.50;5165863;28;20069;-72
2022/06/01 08:00:04;;;;;;;7.55;3.22;;;;;;;19.91;51.01;101381.97;5168640;28;20018;-72
2022/06/01 08:02:36;;;;;;;6.07;3.58;;;;;;;20.01;50.87;101368.66;5183026;28;20021;-72
2022/06/01 08:05:09;;;;;;;5.20;2.92;;;;;;;20.12;50.08;101381.00;5168198;28;20113;-72
2022/06/01 08:07:42;;;;;;;6.03;3.30;;;;;;;19.81;51.08;101374.03;5165912;28;20398;-72
2022/06/01 08:10:15;;;;;;;6.60;3.90;;;;;;;19.89;51.47;101374.16;5167855;28;20113;-71
2022/06/01 08:15:39;;;;;;;6.95;4.28;;;;;;;19.61;50.94;101370.50;5168629;28;20043;-72
2022/06/01 08:18:13;;;;;;;4.07;3.28;;;;;;;20.00;50.85;101378.44;5165374;28;20055;-72
2022/06/01 08:20:45;;;;;;;;;;;;;;;21.03;52.70;101374.28;5183557;28;20074;-72
2022/06/01 08:23:17;;;;;;;7.45;4.28;;;;;;;20.06;51.29;101382.41;5166873;28;19949;-71
2022/06/01 08:25:49;;;;;;;5.95;2.65;;;;;;;20.74;48.45;101374.38;5168105;28;20452;-72
2022/06/01 08:28:21;;;;;;;3.78;2.08;;;;;;;21.07;46.14;101358.03;5165917;28;20030;-72
2022/06/01 08:30:53;;;;;;;3.92;2.47;;;;;;;22.02;44.49;101370.06;5182703;28;20105;-72
2022/06/01 08:33:24;;;;;;;5.75;2.38;;;;;;;22.63;42.57;101369.31;5168039;28;20643;-71
2022/06/01 08:35:56;;;;;;;4.22;3.10;;;;;;;22.68;43.06;101368.81;5168067;28;20045;-72
2022/06/01 08:38:27;;;;;;;6.65;2.53;;;;;;;23.25;41.58;101362.00;5179024;28;20026;-72
2022/06/01 08:41:04;;;;;;;4.60;3.05;;;;;;;23.01;40.70;101357.41;5182899;28;20031;-72
2022/06/01 08:43:51;;;;;;;4.80;2.80;;;;;;;22.44;42.16;101360.50;5182136;28;20030;-72
2022/06/01 08:46:24;;;;;;;5.13;3.25;;;;;;;21.49;42.91;101360.09;5164499;28;20018;-72
2022/06/01 08:49:09;;;;;;;6.18;3.40;;;;;;;21.52;44.28;101361.66;5165800;28;20043;-72
2022/06/01 08:51:40;;;;;;;6.38;3.22;;;;;;;21.48;44.12;101360.25;5167222;28;20023;-71
2022/06/01 08:54:12;;;;;;;6.00;2.97;;;;;;;21.52;43.05;101359.78;5167749;28;20351;-72
2022/06/01 08:56:46;;;;;;;5.95;2.95;;;;;;;21.11;43.33;101362.03;5165498;28;20046;-72
2022/06/01 08:59:34;;;;;;;6.57;2.80;;;;;;;20.92;46.35;101356.66;5166673;28;20149;-72
2022/06/01 09:02:40;;;;;;;5.55;2.75;;;;;;;21.44;43.00;101367.72;5167274;28;20526;-71
2022/06/01 09:05:34;;;;;;;4.28;2.53;;;;;;;22.14;42.38;101368.00;5167774;28;20026;-71
2022/06/01 09:08:27;;;;;;;6.10;2.38;;;;;;;22.15;43.17;101367.00;5163512;28;20031;-72
2022/06/01 09:11:05;;;;;;;6.70;2.28;;;;;;;21.83;41.62;101379.09;5166571;28;20495;-72
2022/06/01 09:13:43;;;;;;;4.13;2.25;;;;;;;21.16;41.20;101373.09;5166923;28;20537;-72
2022/06/01 09:16:19;;;;;;;6.05;2.30;;;;;;;20.67;42.20;101368.81;5166201;28;20045;-73
2022/06/01 09:18:54;;;;;;;2.90;2.03;;;;;;;20.67;42.42;101364.34;5181088;28;20445;-75
2022/06/01 09:24:29;;;;;;;9.60;2.88;;;;;;;21.20;42.81;101363.81;5164476;28;20039;-71
2022/06/01 09:27:05;;;;;;;6.15;2.72;;;;;;;21.58;41.73;101377.00;5164864;28;20031;-71
2022/06/01 09:29:48;;;;;;;4.75;2.70;;;;;;;21.54;42.06;101380.16;5180884;28;20034;-72
2022/06/01 09:32:28;;;;;;;4.72;2.70;;;;;;;21.54;43.03;101374.81;5166299;28;20367;-72
2022/06/01 09:35:03;;;;;;;3.65;3.10;;;;;;;21.94;42.48;101378.84;5165422;28;20110;-72
2022/06/01 09:37:46;;;;;;;3.78;2.70;;;;;;;22.52;41.88;101382.88;5161688;28;20037;-71
2022/06/01 09:40:33;;;;;;;5.05;3.38;;;;;;;22.26;41.58;101378.38;5165445;28;20023;-72
2022/06/01 09:43:04;;;;;;;6.30;3.20;;;;;;;21.45;43.38;101380.03;5166697;28;20029;-72
2022/06/01 09:45:38;;;;;;;7.53;3.85;;;;;;;21.35;43.13;101382.78;5177635;28;20030;-71
2022/06/01 09:48:27;;;;;;;5.00;2.70;;;;;;;21.57;43.12;101377.16;5164268;28;20065;-71
2022/06/01 09:51:08;;;;;;;5.20;2.42;;;;;;;20.68;44.74;101391.78;5166592;28;20614;-72
2022/06/01 09:53:50;;;;;;;4.05;1.92;;;;;;;20.67;45.49;101384.78;5166197;28;20038;-72
2022/06/01 09:56:33;;;;;;;3.55;2.03;;;;;;;20.94;44.78;101383.16;5163055;28;20022;-72
2022/06/01 10:08:30;;;;;;;2.92;1.23;;;;;;;20.19;44.41;101408.72;5180633;28;20034;-71
2022/06/01 10:11:16;;;;;;;;;;;;;;;20.75;44.37;101424.81;5166095;28;20093;-72
2022/06/01 10:13:51;;;;;;;2.80;1.60;;;;;;;19.38;51.26;101431.84;5165158;28;19950;-71
2022/06/01 10:16:48;;;;;;;5.57;3.40;;;;;;;19.31;54.10;101439.50;5162775;28;20481;-71
2022/06/01 10:19:27;;;;;;;7.23;4.50;;;;;;;18.84;55.63;101430.22;5163531;28;20490;-71
2022/06/01 10:22:07;;;;;;;5.50;2.20;;;;;;;18.93;53.15;101441.84;5164983;28;20035;-71
2022/06/01 10:24:45;;;;;;;6.77;3.37;;;;;;;18.78;54.89;101441.38;5181946;28;20054;-71
2022/06/01 10:27:21;;;;;;;2.80;2.50;;;;;;;18.08;58.40;101446.16;5163389;28;20030;-73
2022/06/01 10:30:05;;;;;;;4.83;2.77;;;;;;;17.54;59.02;101438.16;5163801;28;20650;-71
2022/06/01 10:32:47;;;;;;;3.95;2.40;;;;;;;17.47;59.16;101443.09;5180724;28;20023;-71
2022/06/01 10:35:44;;;;;;;4.77;2.80;;;;;;;17.26;61.24;101445.66;5179896;28;20026;-69
2022/06/01 10:38:18;;;;;;;4.57;2.93;;;;;;;16.73;64.29;101439.94;5162601;28;20062;-69
2022/06/01 10:41:02;;;;;;;;;;;;;;;17.93;57.79;101434.19;5181449;28;20536;-71
2022/06/01 10:43:36;;;;;;;3.50;2.70;;;;;;;17.60;62.02;101434.16;5165468;28;19991;-69
2022/06/01 10:46:30;;;;;;;4.60;2.83;;;;;;;17.91;65.00;101429.00;5167171;28;20082;-70
2022/06/01 10:49:31;;;;;;;6.03;2.35;;;;;;;18.55;63.98;101431.75;5170609;28;20033;-73
2022/06/01 10:52:25;;;;;;;4.80;2.10;;;;;;;19.13;62.89;101426.03;5169340;28;20114;-72
2022/06/01 10:55:15;;;;;;;5.07;2.30;;;;;;;19.48;59.33;101438.00;5177218;28;20050;-72
2022/06/01 10:57:48;;;;;;;4.33;2.20;;;;;;;19.29;59.52;101442.31;5167253;28;20060;-70
2022/06/01 11:00:26;;;;;;;2.55;1.88;;;;;;;19.68;56.05;101438.06;5163467;28;20034;-70
2022/06/01 11:03:16;;;;;;;3.20;2.03;;;;;;;19.53;56.32;101437.63;5169853;28;20462;-70
2022/06/01 11:06:10;;;;;;;5.60;2.27;;;;;;;19.05;58.45;101438.13;5186609;28;20042;-70
2022/06/01 11:09:01;;;;;;;2.67;1.95;;;;;;;19.28;58.19;101432.66;5167123;28;20247;-70
2022/06/01 11:11:54;;;;;;;2.80;1.83;;;;;;;19.37;57.23;101436.31;5172856;28;20073;-70
2022/06/01 11:14:50;;;;;;;3.10;1.57;;;;;;;19.10;56.66;101427.97;5168191;28;20208;-70
2022/06/01 11:17:52;;;;;;;3.40;1.60;;;;;;;18.72;57.79;101432.97;5187155;28;20383;-70
2022/06/01 11:20:42;;;;;;;2.70;1.43;;;;;;;18.53;56.69;101427.53;5170165;28;20030;-71
2022/06/01 11:23:51;;;;;;;2.13;1.40;;;;;;;19.08;55.03;101424.59;5169118;28;20057;-70
2022/06/01 11:26:38;;;;;;;2.57;1.70;;;;;;;19.09;55.69;101434.22;5161948;28;20023;-70
2022/06/01 11:29:34;;;;;;;5.47;1.27;;;;;;;19.39;56.37;101430.88;5169581;28;20031;-70
2022/06/01 11:32:14;;;;;;;2.33;1.70;;;;;;;19.48;54.06;101440.66;5170250;28;20043;-70
2022/06/01 11:34:56;;;;;;;3.27;1.40;;;;;;;19.48;54.44;101443.31;5170354;28;20109;-70
2022/06/01 11:37:40;;;;;;;2.90;1.30;;;;;;;19.36;55.14;101449.75;5166963;28;20026;-71
2022/06/01 11:40:15;;;;;;;2.25;1.25;;;;;;;19.74;54.20;101448.13;5169067;28;20022;-70
2022/06/01 11:43:00;;;;;;;2.97;1.20;;;;;;;19.58;56.01;101436.22;5173404;28;20039;-70
2022/06/01 11:45:35;;;;;;;2.53;1.20;;;;;;;20.26;51.96;101457.69;5170233;28;20058;-70
2022/06/01 11:48:10;;;;;;;2.27;1.30;;;;;;;20.15;49.32;101452.50;5167144;28;20100;-71
2022/06/01 11:50:44;;;;;;;1.70;1.13;;;;;;;20.24;48.63;101462.31;5169773;28;20019;-71
2022/06/01 11:53:28;;;;;;;;;;;;;;;20.69;49.08;101457.31;5184363;28;20034;-71
2022/06/01 11:56:13;;;;;;;2.43;1.70;;;;;;;20.61;48.03;101444.75;5169775;28;19914;-71
2022/06/01 11:59:15;;;;;;;2.70;1.77;;;;;;;20.66;47.45;101446.97;5166058;28;20589;-71
2022/06/01 12:02:20;;;;;;;3.90;2.53;;;;;;;20.90;47.00;101443.81;5168978;28;20034;-71
2022/06/01 12:04:55;;;;;;;2.30;1.70;;;;;;;20.67;47.16;101446.84;5167425;28;20449;-71
2022/06/01 12:07:37;;;;;;;2.10;1.50;;;;;;;20.71;46.99;101447.38;5166390;28;20022;-71
2022/06/01 12:10:17;;;;;;;3.47;2.43;;;;;;;20.79;46.75;101430.69;5183454;28;20051;-71
2022/06/01 12:12:54;;;;;;;3.97;1.60;;;;;;;20.34;47.36;101437.50;5170131;28;20043;-71
2022/06/01 12:15:34;;;;;;;3.57;1.70;;;;;;;20.67;45.04;101430.00;5172056;28;20019;-71
2022/06/01 12:18:12;;;;;;;4.15;1.67;;;;;;;20.71;44.92;101430.56;5167745;28;20059;-71
2022/06/01 12:20:47;;;;;;;2.57;1.70;;;;;;;20.52;44.46;101430.50;5169506;28;20030;-71
2022/06/01 12:29:07;;;;;;;1.80;1.23;;;;;;;20.12;47.48;101445.66;5168265;28;20043;-71
2022/06/01 12:31:59;;;;;;;2.47;0.97;;;;;;;20.67;42.89;101445.97;5169389;28;20027;-71
2022/06/01 12:34:35;;;;;;;2.87;0.70;;;;;;;20.61;39.72;101430.59;5183645;28;20027;-71